createdAt,value
2019-05-16T00:00:33.877Z,5.43
2019-05-16T00:03:02.813Z,5.63
2019-05-16T00:05:31.724Z,5.53
2019-05-16T00:08:00.632Z,5.40
2019-05-16T00:10:29.527Z,5.43
2019-05-16T00:12:59.504Z,5.60
2019-05-16T00:15:28.736Z,6.13
2019-05-16T00:17:58.317Z,5.70
2019-05-16T00:20:25.172Z,5.60
2019-05-16T00:22:54.067Z,5.50
2019-05-16T00:25:22.976Z,5.77
2019-05-16T00:27:51.903Z,5.43
2019-05-16T00:30:20.815Z,6.30
2019-05-16T00:32:49.756Z,5.23
2019-05-16T00:35:18.644Z,6.03
2019-05-16T00:37:48.434Z,5.93
2019-05-16T00:40:18.571Z,6.00
2019-05-16T00:42:45.471Z,6.20
2019-05-16T00:45:14.398Z,5.73
2019-05-16T00:47:43.328Z,5.93
2019-05-16T00:50:12.241Z,5.80
2019-05-16T00:52:41.175Z,5.30
2019-05-16T00:55:10.078Z,5.50
2019-05-16T00:57:39.182Z,5.93
2019-05-16T01:00:08.303Z,5.70
2019-05-16T01:02:38.162Z,6.10
2019-05-16T01:05:08.284Z,6.75
2019-05-16T01:07:35.077Z,6.00
2019-05-16T01:10:04.006Z,6.03
2019-05-16T01:12:32.911Z,6.00
2019-05-16T01:15:01.865Z,6.03
2019-05-16T01:17:30.787Z,5.90
2019-05-16T01:19:59.738Z,6.03
2019-05-16T01:22:29.415Z,5.90
2019-05-16T01:24:58.621Z,5.80
2019-05-16T01:27:27.780Z,6.30
2019-05-16T01:29:58.229Z,6.83
2019-05-16T01:32:25.485Z,6.40
2019-05-16T01:34:54.425Z,5.60
2019-05-16T01:37:23.343Z,5.70
2019-05-16T01:39:52.296Z,6.30
2019-05-16T01:42:21.199Z,6.03
2019-05-16T01:44:50.148Z,5.20
2019-05-16T01:47:19.086Z,5.53
2019-05-16T01:49:48.754Z,5.97
2019-05-16T01:52:17.804Z,5.07
2019-05-16T01:54:47.992Z,5.40
2019-05-16T01:57:14.868Z,5.03
2019-05-16T01:59:43.853Z,5.70
2019-05-16T02:02:12.784Z,5.83
2019-05-16T02:04:41.725Z,5.20
2019-05-16T02:07:10.662Z,5.70
2019-05-16T02:09:39.550Z,4.90
2019-05-16T02:12:10.833Z,5.60
2019-05-16T02:14:38.774Z,5.60
2019-05-16T02:17:10.887Z,4.93
2019-05-16T02:19:35.290Z,4.73
2019-05-16T02:22:04.251Z,5.10
2019-05-16T02:24:33.207Z,5.80
2019-05-16T02:27:02.081Z,5.30
2019-05-16T02:29:30.967Z,5.20
2019-05-16T02:32:01.958Z,5.10
2019-05-16T02:34:30.783Z,5.27
2019-05-16T02:37:14.678Z,4.90
2019-05-16T02:39:26.724Z,5.17
2019-05-16T02:41:55.657Z,5.03
2019-05-16T02:44:25.085Z,4.90
2019-05-16T02:46:53.484Z,5.23
2019-05-16T02:49:22.429Z,5.47
2019-05-16T02:51:51.424Z,5.07
2019-05-16T02:54:21.876Z,5.17
2019-05-16T02:56:50.654Z,4.90
2019-05-16T02:59:20.635Z,5.70
2019-05-16T03:01:47.074Z,5.23
2019-05-16T03:04:16.010Z,4.97
2019-05-16T03:06:44.943Z,5.83
2019-05-16T03:09:13.931Z,5.40
2019-05-16T03:11:42.794Z,5.20
2019-05-16T03:14:11.796Z,4.90
2019-05-16T03:16:41.754Z,5.30
2019-05-16T03:19:11.330Z,6.10
2019-05-16T03:21:41.336Z,5.17
2019-05-16T03:24:07.703Z,4.80
2019-05-16T03:26:36.675Z,4.97
2019-05-16T03:29:05.688Z,5.20
2019-05-16T03:31:34.739Z,5.10
2019-05-16T03:34:07.366Z,5.20
2019-05-16T03:36:34.562Z,5.20
2019-05-16T03:39:01.531Z,5.67
2019-05-16T03:41:30.974Z,5.27
2019-05-16T03:44:01.432Z,5.37
2019-05-16T03:46:30.946Z,5.27
2019-05-16T03:48:57.076Z,4.63
2019-05-16T03:51:25.961Z,5.37
2019-05-16T03:53:54.878Z,5.00
2019-05-16T03:56:23.772Z,5.80
2019-05-16T03:58:52.684Z,5.57
2019-05-16T04:01:21.574Z,5.40
2019-05-16T04:03:51.274Z,5.60
2019-05-16T04:06:22.097Z,5.40
2019-05-16T04:08:51.011Z,5.50
2019-05-16T04:11:19.550Z,5.43
2019-05-16T04:13:46.112Z,5.30
2019-05-16T04:16:15.016Z,5.30
2019-05-16T04:18:43.932Z,5.43
2019-05-16T04:21:12.883Z,5.57
2019-05-16T04:23:42.239Z,5.40
2019-05-16T04:26:11.493Z,5.97
2019-05-16T04:28:41.296Z,5.80
2019-05-16T04:31:10.881Z,5.17
2019-05-16T04:33:37.687Z,5.57
2019-05-16T04:36:06.790Z,5.30
2019-05-16T04:38:41.372Z,5.10
2019-05-16T04:41:04.696Z,4.90
2019-05-16T04:43:33.676Z,4.97
2019-05-16T04:46:02.644Z,4.80
2019-05-16T04:48:31.607Z,4.60
2019-05-16T04:51:01.299Z,5.03
2019-05-16T04:53:31.564Z,4.40
2019-05-16T04:56:01.389Z,4.43
2019-05-16T04:58:27.213Z,4.87
2019-05-16T05:00:56.121Z,4.60
2019-05-16T05:03:25.039Z,4.93
2019-05-16T05:05:53.983Z,4.80
2019-05-16T05:08:22.903Z,4.70
2019-05-16T05:10:52.183Z,4.60
2019-05-16T05:13:22.084Z,4.63
2019-05-16T05:15:50.989Z,4.90
2019-05-16T05:18:21.278Z,5.07
2019-05-16T05:20:47.626Z,4.10
2019-05-16T05:23:16.586Z,4.30
2019-05-16T05:25:45.484Z,4.50
2019-05-16T05:28:14.420Z,4.50
2019-05-16T05:30:43.335Z,4.03
2019-05-16T05:33:12.242Z,4.23
2019-05-16T05:35:44.185Z,4.00
2019-05-16T05:38:13.079Z,3.80
2019-05-16T05:40:41.995Z,4.00
2019-05-16T05:43:10.952Z,4.03
2019-05-16T05:45:40.217Z,4.17
2019-05-16T05:48:10.675Z,4.30
2019-05-16T05:50:40.016Z,4.40
2019-05-16T05:53:06.997Z,4.10
2019-05-16T05:55:35.881Z,3.63
2019-05-16T05:58:04.817Z,3.97
2019-05-16T06:00:33.720Z,4.20
2019-05-16T06:03:02.732Z,3.93
2019-05-16T06:05:31.617Z,4.20
2019-05-16T06:08:00.492Z,4.17
2019-05-16T06:10:30.403Z,4.27
2019-05-16T06:13:00.501Z,3.83
2019-05-16T06:15:27.303Z,3.83
2019-05-16T06:17:56.239Z,3.70
2019-05-16T06:20:25.130Z,3.73
2019-05-16T06:22:54.132Z,4.27
2019-05-16T06:25:23.459Z,4.73
2019-05-16T06:27:52.024Z,3.50
2019-05-16T06:30:21.549Z,3.90
2019-05-16T06:32:50.228Z,3.63
2019-05-16T06:35:20.570Z,3.40
2019-05-16T06:37:49.798Z,3.70
2019-05-16T06:40:16.566Z,3.70
2019-05-16T06:42:45.527Z,3.27
2019-05-16T06:45:14.479Z,3.07
2019-05-16T06:47:43.398Z,3.23
2019-05-16T06:50:12.354Z,3.20
2019-05-16T06:52:41.351Z,3.20
2019-05-16T06:55:10.415Z,3.10
2019-05-16T06:57:40.937Z,3.03
2019-05-16T07:00:10.675Z,2.47
2019-05-16T07:02:37.176Z,3.13
2019-05-16T07:05:06.348Z,3.23
2019-05-16T07:07:35.284Z,2.53
2019-05-16T07:10:04.804Z,2.87
2019-05-16T07:12:34.133Z,2.60
2019-05-16T07:15:02.456Z,2.90
2019-05-16T07:17:31.398Z,3.07
2019-05-16T07:20:06.314Z,2.67
2019-05-16T07:22:57.637Z,2.70
2019-05-16T07:25:33.361Z,2.87
2019-05-16T07:28:11.164Z,2.53
2019-05-16T07:30:43.265Z,3.30
2019-05-16T07:33:17.287Z,2.50
2019-05-16T07:36:06.869Z,3.07
2019-05-16T07:38:54.103Z,3.17
2019-05-16T07:41:23.470Z,2.93
2019-05-16T07:44:01.182Z,2.87
2019-05-16T07:46:44.617Z,3.07
2019-05-16T07:49:59.568Z,2.70
2019-05-16T07:52:20.929Z,2.70
2019-05-16T07:54:57.034Z,2.97
2019-05-16T08:01:08.066Z,2.90
2019-05-16T08:03:45.327Z,2.47
2019-05-16T08:06:17.117Z,3.17
2019-05-16T08:12:10.543Z,3.07
2019-05-16T08:14:51.930Z,2.73
2019-05-16T08:17:51.382Z,3.10
2019-05-16T08:20:21.086Z,3.10
2019-05-16T08:23:00.939Z,2.77
2019-05-16T08:25:31.404Z,3.00
2019-05-16T08:28:06.063Z,2.83
2019-05-16T08:31:05.746Z,2.50
2019-05-16T08:33:44.355Z,2.90
2019-05-16T08:36:20.936Z,2.60
2019-05-16T08:38:51.212Z,2.67
2019-05-16T08:41:26.787Z,3.00
2019-05-16T08:44:07.415Z,2.93
2019-05-16T08:46:42.314Z,2.60
2019-05-16T08:49:26.223Z,3.30
2019-05-16T08:52:01.598Z,2.80
2019-05-16T08:54:31.842Z,2.63
2019-05-16T08:57:27.777Z,2.90
2019-05-16T09:00:01.443Z,2.97
2019-05-16T09:02:42.237Z,2.47
2019-05-16T09:05:22.310Z,2.40
2019-05-16T09:08:01.452Z,2.33
2019-05-16T09:11:01.808Z,2.33
2019-05-16T09:13:36.835Z,2.45
2019-05-16T09:16:11.253Z,2.70
2019-05-16T09:18:41.177Z,2.42
2019-05-16T09:21:18.274Z,2.45
2019-05-16T09:23:51.933Z,2.50
2019-05-16T09:26:21.222Z,2.83
2019-05-16T09:28:57.003Z,2.33
2019-05-16T09:31:27.671Z,2.60
2019-05-16T09:33:58.374Z,2.60
2019-05-16T09:36:28.167Z,2.50
2019-05-16T09:39:01.607Z,2.67
2019-05-16T09:41:46.305Z,2.93
2019-05-16T09:44:02.559Z,2.60
2019-05-16T09:46:33.814Z,3.05
2019-05-16T09:49:16.813Z,2.77
2019-05-16T09:51:37.794Z,3.15
2019-05-16T09:54:24.382Z,2.90
2019-05-16T09:57:10.088Z,2.30
2019-05-16T09:59:46.772Z,2.17
2019-05-16T10:02:18.285Z,2.40
2019-05-16T10:04:49.379Z,2.65
2019-05-16T10:07:21.168Z,2.20
2019-05-16T10:09:52.980Z,2.30
2019-05-16T10:12:26.196Z,2.37
2019-05-16T10:14:53.263Z,2.25
2019-05-16T10:17:23.546Z,2.20
2019-05-16T10:20:02.882Z,2.27
2019-05-16T10:22:42.987Z,2.27
2019-05-16T10:25:19.570Z,2.15
2019-05-16T10:28:02.240Z,2.20
2019-05-16T10:30:31.671Z,2.80
2019-05-16T10:33:01.163Z,3.12
2019-05-16T10:35:30.381Z,2.50
2019-05-16T10:38:01.836Z,2.30
2019-05-16T10:40:33.414Z,2.50
2019-05-16T10:43:02.485Z,2.05
2019-05-16T10:45:36.921Z,2.70
2019-05-16T10:48:12.587Z,2.10
2019-05-16T10:50:47.062Z,2.72
2019-05-16T10:53:50.327Z,2.30
2019-05-16T10:55:48.581Z,2.58
2019-05-16T10:58:35.575Z,2.42
2019-05-16T11:01:19.419Z,2.58
2019-05-16T11:03:19.865Z,2.50
2019-05-16T11:06:05.528Z,2.80
2019-05-16T11:08:28.440Z,2.47
2019-05-16T11:11:02.731Z,2.98
2019-05-16T11:13:36.942Z,2.62
2019-05-16T11:16:11.247Z,3.47
2019-05-16T11:18:42.771Z,3.10
2019-05-16T11:21:13.251Z,3.33
2019-05-16T11:23:51.075Z,3.00
2019-05-16T11:26:31.196Z,2.92
2019-05-16T11:31:40.682Z,3.00
2019-05-16T11:34:31.693Z,2.50
2019-05-16T11:37:02.047Z,3.20
2019-05-16T11:39:32.776Z,2.90
2019-05-16T11:42:08.108Z,3.10
2019-05-16T11:44:38.047Z,2.60
2019-05-16T11:47:16.483Z,2.83
2019-05-16T11:49:43.385Z,2.85
2019-05-16T11:52:17.822Z,3.17
2019-05-16T11:54:46.769Z,2.50
2019-05-16T11:57:17.893Z,2.70
2019-05-16T11:59:52.296Z,3.15
2019-05-16T12:02:23.450Z,2.80
2019-05-16T12:04:57.754Z,3.25
2019-05-16T12:07:32.240Z,3.42
2019-05-16T12:10:09.496Z,2.85
2019-05-16T12:12:40.224Z,3.02
2019-05-16T12:15:11.894Z,2.77
2019-05-16T12:17:42.610Z,3.15
2019-05-16T12:20:21.918Z,3.20
2019-05-16T12:22:53.461Z,3.65
2019-05-16T12:25:31.311Z,3.80
2019-05-16T12:28:08.340Z,3.62
2019-05-16T12:30:40.709Z,3.42
2019-05-16T12:33:19.140Z,3.02
2019-05-16T12:35:49.207Z,3.98
2019-05-16T12:38:18.113Z,3.12
2019-05-16T12:40:47.996Z,3.22
2019-05-16T12:43:19.877Z,3.30
2019-05-16T12:45:56.954Z,3.40
2019-05-16T12:48:26.165Z,3.50
2019-05-16T12:50:58.948Z,3.42
2019-05-16T12:53:31.696Z,3.05
2019-05-16T12:56:03.572Z,2.72
2019-05-16T12:58:42.026Z,3.25
2019-05-16T13:01:07.895Z,3.30
2019-05-16T13:03:40.074Z,3.15
2019-05-16T13:06:09.290Z,3.15
2019-05-16T13:08:38.381Z,3.20
2019-05-16T13:11:10.370Z,3.30
2019-05-16T13:13:57.373Z,3.58
2019-05-16T13:16:11.112Z,3.90
2019-05-16T13:18:47.509Z,3.70
2019-05-16T13:21:34.117Z,4.00
2019-05-16T13:24:10.666Z,3.80
2019-05-16T13:26:43.221Z,4.03
2019-05-16T13:29:12.936Z,3.37
2019-05-16T13:31:42.049Z,3.53
2019-05-16T13:34:11.189Z,3.52
2019-05-16T13:36:40.504Z,3.70
2019-05-16T13:39:17.006Z,3.40
2019-05-16T13:41:53.887Z,3.60
2019-05-16T13:44:23.661Z,4.03
2019-05-16T13:46:52.934Z,3.75
2019-05-16T13:49:22.073Z,3.87
2019-05-16T13:51:51.186Z,3.35
2019-05-16T13:54:26.977Z,3.50
2019-05-16T13:57:03.462Z,3.90
2019-05-16T13:59:32.474Z,3.85
2019-05-16T14:05:12.070Z,3.60
2019-05-16T14:07:48.018Z,3.72
2019-05-16T14:10:29.659Z,4.17
2019-05-16T14:12:50.353Z,4.22
2019-05-16T14:15:31.406Z,4.37
2019-05-16T14:17:51.107Z,4.17
2019-05-16T14:20:21.016Z,4.03
2019-05-16T14:22:57.321Z,3.85
2019-05-16T14:25:33.855Z,3.52
2019-05-16T14:28:07.714Z,3.62
2019-05-16T14:30:57.370Z,4.47
2019-05-16T14:33:30.765Z,4.90
2019-05-16T14:36:02.300Z,4.17
2019-05-16T14:38:41.691Z,4.65
2019-05-16T14:41:37.216Z,5.50
2019-05-16T14:44:08.572Z,5.75
2019-05-16T14:46:48.298Z,4.90
2019-05-16T14:49:22.032Z,4.87
2019-05-16T14:52:09.429Z,4.60
2019-05-16T14:54:40.444Z,4.50
2019-05-16T14:57:16.712Z,4.70
2019-05-16T14:59:47.338Z,4.80
2019-05-16T15:02:18.042Z,4.83
2019-05-16T15:04:49.616Z,4.53
2019-05-16T15:07:22.288Z,4.47
2019-05-16T15:09:56.619Z,4.43
2019-05-16T15:12:26.636Z,3.70
2019-05-16T15:17:59.782Z,3.53
2019-05-16T15:20:30.074Z,3.50
2019-05-16T15:22:59.918Z,3.73
2019-05-16T15:25:30.669Z,3.63
2019-05-16T15:28:07.318Z,3.40
2019-05-16T15:30:39.376Z,2.98
2019-05-16T15:33:08.458Z,2.80
2019-05-16T15:35:37.933Z,2.93
2019-05-16T15:38:08.142Z,2.90
2019-05-16T15:40:48.152Z,3.00
2019-05-16T15:43:17.683Z,3.40
2019-05-16T15:45:53.759Z,3.20
2019-05-16T15:48:22.909Z,3.10
2019-05-16T15:50:51.752Z,2.90
2019-05-16T15:53:20.633Z,3.17
2019-05-16T15:55:49.575Z,3.00
2019-05-16T15:58:18.754Z,3.00
2019-05-16T16:00:48.489Z,3.20
2019-05-16T16:03:17.627Z,3.40
2019-05-16T16:05:45.372Z,3.27
2019-05-16T16:08:14.278Z,3.40
2019-05-16T16:10:43.207Z,3.03
2019-05-16T16:13:12.082Z,3.57
2019-05-16T16:15:50.387Z,3.17
2019-05-16T16:18:10.022Z,3.70
2019-05-16T16:20:38.899Z,4.07
2019-05-16T16:23:07.839Z,3.80
2019-05-16T16:25:36.719Z,3.87
2019-05-16T16:28:07.374Z,4.43
2019-05-16T16:30:37.394Z,4.50
2019-05-16T16:33:19.031Z,4.90
2019-05-16T16:35:32.970Z,4.30
2019-05-16T16:38:01.922Z,5.00
2019-05-16T16:40:30.840Z,4.77
2019-05-16T16:42:59.762Z,4.73
2019-05-16T16:45:28.660Z,5.30
2019-05-16T16:47:57.651Z,5.40
2019-05-16T16:50:26.678Z,5.40
2019-05-16T16:52:56.566Z,5.90
2019-05-16T16:55:24.319Z,5.73
2019-05-16T16:57:56.013Z,5.87
2019-05-16T17:00:22.165Z,5.57
2019-05-16T17:03:02.224Z,5.30
2019-05-16T17:05:19.987Z,5.13
2019-05-16T17:07:48.898Z,4.63
2019-05-16T17:10:17.853Z,4.53
2019-05-16T17:12:47.336Z,4.73
2019-05-16T17:15:17.074Z,4.80
2019-05-16T17:17:46.663Z,5.00
2019-05-16T17:20:13.604Z,5.03
2019-05-16T17:22:42.455Z,5.93
2019-05-16T17:25:11.439Z,5.83
2019-05-16T17:27:40.327Z,5.73
2019-05-16T17:30:16.644Z,5.73
2019-05-16T17:32:43.164Z,5.87
2019-05-16T17:35:12.098Z,5.17
2019-05-16T17:37:40.981Z,5.87
2019-05-16T17:40:10.112Z,6.00
2019-05-16T17:42:39.072Z,6.00
2019-05-16T17:45:08.186Z,5.53
2019-05-16T17:47:37.219Z,5.97
2019-05-16T17:50:07.497Z,5.57
2019-05-16T17:52:37.018Z,5.10
2019-05-16T17:55:07.243Z,4.77
2019-05-16T17:57:34.347Z,4.33
2019-05-16T18:00:03.507Z,4.67
2019-05-16T18:02:32.291Z,4.70
2019-05-16T18:05:01.200Z,4.70
2019-05-16T18:07:30.118Z,4.63
2019-05-16T18:09:59.044Z,4.67
2019-05-16T18:12:27.949Z,5.03
2019-05-16T18:14:57.198Z,4.50
2019-05-16T18:17:26.827Z,4.90
2019-05-16T18:19:54.671Z,4.93
2019-05-16T18:22:23.596Z,5.07
2019-05-16T18:24:52.471Z,6.00
2019-05-16T18:27:21.381Z,4.93
2019-05-16T18:29:50.269Z,5.20
2019-05-16T18:32:19.173Z,5.50
2019-05-16T18:34:48.047Z,4.70
2019-05-16T18:37:17.416Z,5.00
2019-05-16T18:39:47.427Z,4.50
2019-05-16T18:42:16.774Z,5.37
2019-05-16T18:44:43.692Z,4.67
2019-05-16T18:47:12.642Z,4.90
2019-05-16T18:49:41.555Z,4.50
2019-05-16T18:52:10.457Z,4.37
2019-05-16T18:54:39.365Z,4.70
2019-05-16T18:57:08.372Z,4.73
2019-05-16T18:59:37.290Z,4.63
2019-05-16T19:02:09.692Z,4.30
2019-05-16T19:04:37.691Z,4.03
2019-05-16T19:07:04.239Z,4.27
2019-05-16T19:09:33.161Z,4.73
2019-05-16T19:12:02.036Z,4.17
2019-05-16T19:14:30.942Z,3.80
2019-05-16T19:16:59.872Z,4.50
2019-05-16T19:19:28.770Z,4.37
2019-05-16T19:21:59.581Z,4.17
2019-05-16T19:24:27.819Z,4.43
2019-05-16T19:26:57.356Z,3.87
2019-05-16T19:29:26.310Z,4.00
2019-05-16T19:31:53.274Z,4.47
2019-05-16T19:34:22.183Z,4.30
2019-05-16T19:36:51.087Z,4.03
2019-05-16T19:39:19.973Z,4.40
2019-05-16T19:41:48.905Z,4.50
2019-05-16T19:44:17.887Z,3.70
2019-05-16T19:46:47.040Z,3.80
2019-05-16T19:49:15.658Z,3.97
2019-05-16T19:51:46.835Z,3.90
2019-05-16T19:54:13.442Z,4.37
2019-05-16T19:56:42.387Z,4.57
2019-05-16T19:59:11.306Z,3.93
2019-05-16T20:01:40.181Z,4.60
2019-05-16T20:04:09.115Z,4.20
2019-05-16T20:06:38.019Z,4.30
2019-05-16T20:09:07.676Z,4.07
2019-05-16T20:11:36.994Z,3.67
2019-05-16T20:14:07.323Z,4.83
2019-05-16T20:16:36.624Z,4.17
2019-05-16T20:19:03.297Z,4.97
2019-05-16T20:21:32.192Z,4.70
2019-05-16T20:24:01.095Z,4.63
2019-05-16T20:26:30.000Z,4.50
2019-05-16T20:28:59.544Z,4.77
2019-05-16T20:31:27.851Z,4.30
2019-05-16T20:33:56.721Z,4.53
2019-05-16T20:36:26.443Z,4.50
2019-05-16T20:38:54.605Z,4.60
2019-05-16T20:41:23.514Z,5.03
2019-05-16T20:43:52.422Z,4.80
2019-05-16T20:46:21.344Z,4.33
2019-05-16T20:48:50.264Z,4.80
2019-05-16T20:51:20.239Z,4.93
2019-05-16T20:53:49.781Z,5.03
2019-05-16T20:56:17.221Z,4.37
2019-05-16T20:58:46.697Z,4.97
2019-05-16T21:01:17.184Z,4.73
2019-05-16T21:03:43.735Z,4.53
2019-05-16T21:06:12.728Z,4.80
2019-05-16T21:08:41.631Z,4.57
2019-05-16T21:11:10.523Z,5.27
2019-05-16T21:13:39.454Z,5.50
2019-05-16T21:16:08.404Z,5.43
2019-05-16T21:18:37.834Z,5.40
2019-05-16T21:21:07.670Z,5.63
2019-05-16T21:23:36.579Z,5.50
2019-05-16T21:26:04.122Z,5.63
2019-05-16T21:28:33.042Z,5.63
2019-05-16T21:31:01.975Z,6.00
2019-05-16T21:33:30.862Z,5.73
2019-05-16T21:35:59.776Z,6.23
2019-05-16T21:38:28.655Z,5.67
2019-05-16T21:40:58.461Z,5.97
2019-05-16T21:43:27.089Z,5.77
2019-05-16T21:45:56.691Z,5.20
2019-05-16T21:48:24.230Z,5.80
2019-05-16T21:50:53.148Z,5.23
2019-05-16T21:53:22.024Z,5.70
2019-05-16T21:55:50.924Z,5.67
2019-05-16T21:58:19.819Z,5.63
2019-05-16T22:00:48.763Z,5.67
2019-05-16T22:03:17.916Z,6.50
2019-05-16T22:05:46.813Z,5.70
2019-05-16T22:08:16.761Z,5.90
2019-05-16T22:10:46.741Z,6.03
2019-05-16T22:13:13.508Z,6.13
2019-05-16T22:15:42.434Z,6.43
2019-05-16T22:18:11.321Z,6.77
2019-05-16T22:20:40.193Z,6.50
2019-05-16T22:23:09.146Z,6.40
2019-05-16T22:25:38.052Z,6.70
2019-05-16T22:28:07.355Z,6.20
2019-05-16T22:30:36.562Z,6.63
2019-05-16T22:33:08.819Z,7.13
2019-05-16T22:35:33.845Z,7.03
2019-05-16T22:38:02.782Z,6.90
2019-05-16T22:40:33.337Z,6.80
2019-05-16T22:43:00.609Z,6.77
2019-05-16T22:45:29.522Z,6.60
2019-05-16T22:47:58.431Z,6.80
2019-05-16T22:50:27.349Z,8.03
2019-05-16T22:52:56.957Z,7.90
2019-05-16T22:55:26.504Z,8.67
2019-05-16T22:57:56.390Z,8.07
2019-05-16T23:00:26.549Z,8.57
2019-05-16T23:02:56.643Z,8.30
2019-05-16T23:05:23.824Z,8.90
2019-05-16T23:08:02.888Z,8.90
2019-05-16T23:10:21.695Z,9.20
2019-05-16T23:12:50.600Z,9.88
2019-05-16T23:15:19.503Z,8.97
2019-05-16T23:17:48.487Z,9.00
2019-05-16T23:20:17.320Z,8.70
2019-05-16T23:22:46.974Z,10.05
2019-05-16T23:25:17.180Z,9.33
2019-05-16T23:27:44.154Z,9.60
2019-05-16T23:30:13.099Z,10.00
2019-05-16T23:32:42.019Z,10.43
2019-05-16T23:35:11.072Z,9.63
2019-05-16T23:37:43.161Z,10.13
2019-05-16T23:40:12.069Z,10.17
2019-05-16T23:42:40.966Z,10.97
2019-05-16T23:45:09.892Z,11.37
2019-05-16T23:47:38.809Z,11.10
2019-05-16T23:50:07.908Z,12.40
2019-05-16T23:52:37.082Z,11.97
2019-05-16T23:55:08.153Z,12.03
2019-05-16T23:57:37.125Z,14.78
